Time;durP1;ratioP1;P1;durP2;ratioP2;P2;SDS_P1;SDS_P2;PMS_P1;PMS_P2;Temp;Humidity;BMP_temperature;BMP_pressure;BME280_temperature;BME280_humidity;BME280_pressure;Samples;Min_cycle;Max_cycle;Signal;HPM_P1;HPM_P2
2021/11/13 00:02:18;;;;;;;15.73;7.82;;;9.90;96.60;;;;;;4995662;28;20541;-75
2021/11/13 00:04:43;;;;;;;15.80;8.75;;;10.00;96.70;;;;;;4995801;28;20039;-75
2021/11/13 00:07:09;;;;;;;13.77;7.53;;;10.00;96.80;;;;;;4993881;28;20054;-75
2021/11/13 00:09:35;;;;;;;13.70;8.13;;;9.90;96.80;;;;;;4995291;28;20018;-75
2021/11/13 00:12:01;;;;;;;17.48;9.50;;;10.00;96.90;;;;;;5026947;28;20065;-75
2021/11/13 00:14:29;;;;;;;19.25;9.85;;;10.00;97.00;;;;;;5027005;28;20022;-75
2021/11/13 00:16:55;;;;;;;16.67;8.80;;;10.00;97.10;;;;;;4995092;28;20023;-74
2021/11/13 00:19:21;;;;;;;23.58;11.00;;;10.00;97.10;;;;;;4995493;28;20030;-74
2021/11/13 00:21:46;;;;;;;15.93;8.52;;;9.90;97.20;;;;;;4995262;28;20038;-75
2021/11/13 00:24:12;;;;;;;18.95;9.68;;;10.00;97.20;;;;;;4994947;28;20038;-75
2021/11/13 00:26:39;;;;;;;17.23;8.77;;;10.00;97.30;;;;;;4995366;28;20072;-74
2021/11/13 00:29:05;;;;;;;18.40;8.23;;;9.90;97.40;;;;;;4993505;28;20374;-74
2021/11/13 00:31:32;;;;;;;19.55;9.32;;;10.00;97.40;;;;;;4995367;28;20042;-74
2021/11/13 00:33:58;;;;;;;16.90;9.13;;;10.00;97.50;;;;;;4993526;28;20030;-76
2021/11/13 00:36:24;;;;;;;20.80;9.60;;;10.00;97.50;;;;;;4995200;28;20034;-75
2021/11/13 00:38:51;;;;;;;15.70;7.97;;;10.00;97.70;;;;;;4995067;28;20474;-74
2021/11/13 00:41:18;;;;;;;16.13;9.65;;;10.00;97.80;;;;;;4994514;28;20030;-75
2021/11/13 00:43:44;;;;;;;19.90;10.80;;;10.00;97.90;;;;;;4995021;28;20026;-75
2021/11/13 00:46:10;;;;;;;17.05;9.05;;;10.00;97.90;;;;;;4993309;28;20543;-75
2021/11/13 00:48:35;;;;;;;16.60;9.57;;;10.00;97.90;;;;;;4993679;28;20061;-75
2021/11/13 00:51:02;;;;;;;16.67;9.20;;;10.00;97.90;;;;;;4994456;28;20419;-75
2021/11/13 00:53:28;;;;;;;17.02;8.95;;;10.00;98.00;;;;;;4994404;28;20383;-75
2021/11/13 00:55:53;;;;;;;26.00;11.55;;;10.00;98.00;;;;;;4994803;28;20061;-75
2021/11/13 00:58:19;;;;;;;17.10;9.55;;;10.00;98.10;;;;;;4994215;28;20112;-76
2021/11/13 01:00:45;;;;;;;21.80;9.45;;;10.00;98.10;;;;;;4994573;28;20041;-75
2021/11/13 01:03:11;;;;;;;20.23;10.45;;;10.00;98.10;;;;;;4994185;28;20030;-75
2021/11/13 01:05:37;;;;;;;21.75;11.02;;;10.00;98.20;;;;;;4994620;28;20026;-75
2021/11/13 01:08:03;;;;;;;22.70;10.77;;;10.00;98.30;;;;;;4992973;28;20022;-75
2021/11/13 01:10:29;;;;;;;19.88;10.48;;;10.00;98.30;;;;;;4994027;28;20378;-75
2021/11/13 01:12:55;;;;;;;20.02;9.90;;;10.00;98.30;;;;;;4995078;28;20483;-75
2021/11/13 01:15:21;;;;;;;20.23;9.75;;;10.00;98.30;;;;;;5026247;28;20026;-75
2021/11/13 01:17:48;;;;;;;19.98;9.38;;;10.00;98.30;;;;;;4994632;28;20026;-75
2021/11/13 01:20:16;;;;;;;18.90;10.82;;;10.00;98.30;;;;;;4993743;28;20146;-75
2021/11/13 01:22:42;;;;;;;18.95;9.93;;;10.10;98.30;;;;;;4994302;28;20117;-75
2021/11/13 01:25:09;;;;;;;17.95;10.10;;;10.00;98.30;;;;;;4993512;28;20101;-74
2021/11/13 01:27:36;;;;;;;17.83;9.57;;;10.00;98.60;;;;;;4994186;28;20053;-75
2021/11/13 01:30:03;;;;;;;20.45;9.68;;;10.10;98.40;;;;;;4993820;28;20035;-75
2021/11/13 01:32:29;;;;;;;18.02;10.35;;;10.10;98.40;;;;;;4993902;28;20019;-75
2021/11/13 01:34:55;;;;;;;19.55;10.65;;;10.10;98.40;;;;;;4994015;28;20045;-75
2021/11/13 01:37:20;;;;;;;19.45;9.98;;;10.10;98.40;;;;;;4993652;28;20037;-74
2021/11/13 01:39:47;;;;;;;15.45;9.27;;;10.10;98.40;;;;;;4994029;28;20109;-74
2021/11/13 01:42:13;;;;;;;18.27;9.27;;;10.10;98.50;;;;;;4993386;28;20038;-75
2021/11/13 01:44:38;;;;;;;21.02;11.70;;;10.10;98.50;;;;;;4993786;28;20362;-74
2021/11/13 01:47:05;;;;;;;18.80;9.88;;;10.10;98.60;;;;;;5024922;28;20034;-74
2021/11/13 01:49:31;;;;;;;18.20;9.82;;;10.10;98.60;;;;;;4993794;28;20022;-74
2021/11/13 01:51:57;;;;;;;19.00;9.93;;;10.10;98.60;;;;;;4992447;28;20030;-75
2021/11/13 01:54:23;;;;;;;20.50;10.80;;;10.10;98.60;;;;;;4993345;28;20026;-75
2021/11/13 01:56:51;;;;;;;14.00;8.32;;;10.10;98.70;;;;;;4993457;28;20105;-75
2021/11/13 01:59:23;;;;;;;20.23;10.23;;;10.00;98.70;;;;;;4993253;28;20069;-75
2021/11/13 02:01:49;;;;;;;14.07;7.75;;;10.10;98.70;;;;;;4993562;28;20027;-75
2021/11/13 02:04:15;;;;;;;17.35;9.52;;;10.10;98.70;;;;;;4993228;28;20030;-75
2021/11/13 02:06:40;;;;;;;16.75;9.45;;;10.10;98.70;;;;;;4993637;28;20037;-75
2021/11/13 02:09:06;;;;;;;16.70;8.80;;;10.10;98.70;;;;;;4992764;28;20023;-74
2021/11/13 02:11:33;;;;;;;17.58;9.35;;;10.10;98.70;;;;;;4993535;28;20026;-74
2021/11/13 02:13:59;;;;;;;18.98;9.75;;;10.10;98.70;;;;;;4993206;28;20101;-75
2021/11/13 02:16:26;;;;;;;15.82;8.20;;;10.10;98.80;;;;;;4992031;28;20026;-74
2021/11/13 02:18:52;;;;;;;16.30;8.65;;;10.20;98.80;;;;;;4993631;28;20033;-75
2021/11/13 02:21:18;;;;;;;19.65;10.93;;;10.20;98.80;;;;;;5024283;28;20026;-75
2021/11/13 02:23:44;;;;;;;18.40;8.90;;;10.20;98.80;;;;;;4992113;28;20125;-75
2021/11/13 02:26:10;;;;;;;15.18;8.32;;;10.20;98.80;;;;;;4993096;28;20105;-75
2021/11/13 02:28:36;;;;;;;14.45;7.65;;;10.20;98.80;;;;;;4993499;28;20113;-75
2021/11/13 02:31:05;;;;;;;13.00;7.85;;;10.20;98.70;;;;;;4992683;28;20458;-75
2021/11/13 02:33:32;;;;;;;13.95;8.55;;;10.30;98.80;;;;;;4993176;28;20030;-75
2021/11/13 02:35:59;;;;;;;14.07;8.93;;;10.20;98.70;;;;;;4993186;28;20018;-75
2021/11/13 02:38:33;;;;;;;15.65;8.20;;;10.30;98.80;;;;;;4992625;28;20026;-75
2021/11/13 02:41:01;;;;;;;15.80;8.45;;;10.30;98.70;;;;;;4993150;28;20109;-74
2021/11/13 02:43:31;;;;;;;12.75;7.30;;;10.30;98.70;;;;;;4993037;28;20451;-75
2021/11/13 02:45:58;;;;;;;16.40;8.63;;;10.30;98.70;;;;;;4993045;28;20026;-75
2021/11/13 02:48:26;;;;;;;15.55;8.07;;;10.30;98.70;;;;;;4992535;28;20053;-76
2021/11/13 02:50:52;;;;;;;14.75;7.60;;;10.30;98.70;;;;;;4992937;28;20529;-75
2021/11/13 02:53:20;;;;;;;15.27;8.50;;;10.30;98.80;;;;;;4992515;28;20026;-75
2021/11/13 02:55:47;;;;;;;19.45;9.00;;;10.30;98.80;;;;;;4992950;28;20516;-75
2021/11/13 02:58:13;;;;;;;14.20;8.13;;;10.30;98.90;;;;;;4994768;28;20074;-75
2021/11/13 03:00:40;;;;;;;16.23;8.88;;;10.40;98.90;;;;;;4995603;28;20030;-75
2021/11/13 03:03:06;;;;;;;15.65;8.82;;;10.40;98.90;;;;;;4996436;28;20200;-75
2021/11/13 03:05:44;;;;;;;16.85;8.60;;;10.30;98.90;;;;;;4996760;28;20085;-75
2021/11/13 03:08:10;;;;;;;15.15;7.95;;;10.30;99.00;;;;;;4996342;28;20026;-75
2021/11/13 03:10:37;;;;;;;16.15;9.10;;;10.40;99.00;;;;;;4996419;28;20030;-75
2021/11/13 03:13:05;;;;;;;16.38;10.27;;;10.40;99.00;;;;;;4996400;28;20469;-75
2021/11/13 03:15:31;;;;;;;18.73;9.45;;;10.40;99.00;;;;;;4996288;28;20015;-75
2021/11/13 03:17:58;;;;;;;15.88;8.23;;;10.40;99.00;;;;;;5028092;28;20019;-75
2021/11/13 03:20:28;;;;;;;17.13;9.82;;;10.40;99.00;;;;;;4995832;28;20133;-75
2021/11/13 03:22:59;;;;;;;19.67;10.23;;;10.50;99.00;;;;;;4995477;28;20068;-75
2021/11/13 03:25:28;;;;;;;16.33;7.93;;;10.50;99.00;;;;;;4996062;28;20093;-75
2021/11/13 03:27:59;;;;;;;18.27;9.93;;;10.50;99.00;;;;;;4996429;28;20030;-74
2021/11/13 03:30:25;;;;;;;18.98;9.60;;;10.50;99.00;;;;;;4996119;28;20022;-75
2021/11/13 03:32:52;;;;;;;15.98;8.75;;;10.50;99.00;;;;;;4996024;28;20040;-74
2021/11/13 03:35:26;;;;;;;18.70;9.85;;;10.50;99.10;;;;;;5027410;28;20455;-74
2021/11/13 03:37:54;;;;;;;17.02;9.65;;;10.50;99.10;;;;;;5028011;28;20027;-74
2021/11/13 03:40:20;;;;;;;20.25;11.00;;;10.50;99.10;;;;;;4995639;28;20022;-75
2021/11/13 03:42:45;;;;;;;18.08;10.77;;;10.50;99.10;;;;;;4996404;28;20023;-75
2021/11/13 03:45:11;;;;;;;18.42;9.23;;;10.50;99.10;;;;;;4995713;28;20022;-75
2021/11/13 03:47:37;;;;;;;19.27;10.85;;;10.50;99.10;;;;;;4995778;28;20080;-74
2021/11/13 03:50:04;;;;;;;20.98;10.57;;;10.50;99.10;;;;;;4994778;28;20065;-75
2021/11/13 03:52:30;;;;;;;15.85;8.40;;;10.50;99.20;;;;;;4994174;28;20060;-75
2021/11/13 03:54:56;;;;;;;21.20;9.57;;;10.60;99.20;;;;;;4995591;28;20053;-75
2021/11/13 03:57:22;;;;;;;17.95;9.70;;;10.60;99.20;;;;;;4995173;28;20061;-74
2021/11/13 03:59:48;;;;;;;16.13;9.65;;;10.60;99.20;;;;;;5027245;28;20133;-74
2021/11/13 04:02:15;;;;;;;16.55;7.75;;;10.60;99.20;;;;;;4995047;28;20050;-75
2021/11/13 04:04:41;;;;;;;19.98;10.27;;;10.60;99.20;;;;;;4994431;28;20380;-75
2021/11/13 04:07:08;;;;;;;18.58;9.45;;;10.70;99.20;;;;;;4995639;28;20018;-75
2021/11/13 04:09:35;;;;;;;19.55;11.20;;;10.70;99.20;;;;;;4995727;28;20478;-74
2021/11/13 04:12:05;;;;;;;16.75;10.02;;;10.70;99.20;;;;;;4994421;28;20026;-75
2021/11/13 04:14:33;;;;;;;19.58;9.85;;;10.70;99.20;;;;;;4993898;28;20457;-75
2021/11/13 04:16:59;;;;;;;16.83;8.95;;;10.70;99.20;;;;;;4994199;28;20387;-75
2021/11/13 04:19:26;;;;;;;15.63;8.25;;;10.70;99.20;;;;;;4995051;28;20034;-75
2021/11/13 04:21:52;;;;;;;21.33;11.27;;;10.70;99.40;;;;;;4995230;28;20111;-75
2021/11/13 04:24:17;;;;;;;21.45;11.05;;;10.70;99.20;;;;;;4995152;28;20057;-74
2021/11/13 04:26:43;;;;;;;17.52;10.02;;;10.80;99.20;;;;;;4995556;28;20052;-74
2021/11/13 04:29:09;;;;;;;26.65;12.18;;;10.70;99.20;;;;;;4995330;28;20026;-74
2021/11/13 04:31:34;;;;;;;19.25;9.93;;;10.70;99.20;;;;;;4993887;28;20069;-74
2021/11/13 04:34:03;;;;;;;17.17;9.73;;;10.70;99.50;;;;;;4995149;28;20485;-74
2021/11/13 04:36:34;;;;;;;17.42;10.13;;;10.80;99.30;;;;;;4994651;28;20050;-74
2021/11/13 04:38:59;;;;;;;22.35;11.00;;;10.80;99.30;;;;;;4995358;28;20106;-75
2021/11/13 04:41:25;;;;;;;19.13;11.25;;;10.80;99.30;;;;;;4994613;28;20114;-75
2021/11/13 04:43:51;;;;;;;21.17;10.35;;;10.80;99.30;;;;;;4993735;28;20026;-74
2021/11/13 04:46:17;;;;;;;22.00;10.95;;;10.80;99.30;;;;;;4994197;28;20050;-74
2021/11/13 04:48:43;;;;;;;20.25;10.73;;;10.80;99.30;;;;;;4995062;28;20022;-75
2021/11/13 04:51:08;;;;;;;18.20;9.75;;;10.80;99.30;;;;;;5026478;28;20041;-75
2021/11/13 04:53:34;;;;;;;19.00;9.43;;;10.80;99.30;;;;;;5025807;28;20356;-75
2021/11/13 04:56:00;;;;;;;17.55;10.20;;;10.80;99.30;;;;;;4994819;28;20176;-74
2021/11/13 04:58:26;;;;;;;18.13;10.30;;;10.80;99.40;;;;;;4994023;28;20509;-75
2021/11/13 05:00:51;;;;;;;20.20;11.02;;;10.80;99.30;;;;;;4993324;28;20125;-75
2021/11/13 05:03:17;;;;;;;18.73;10.38;;;10.80;99.30;;;;;;4992863;28;20030;-75
2021/11/13 05:05:43;;;;;;;18.30;9.52;;;10.80;99.30;;;;;;4994594;28;20494;-75
2021/11/13 05:08:08;;;;;;;14.43;7.80;;;10.90;99.30;;;;;;4994559;28;20049;-74
2021/11/13 05:10:34;;;;;;;18.15;10.05;;;10.90;99.30;;;;;;4994060;28;20034;-75
2021/11/13 05:13:00;;;;;;;16.88;9.25;;;10.90;99.20;;;;;;4994447;28;20356;-74
2021/11/13 05:15:25;;;;;;;14.25;7.80;;;10.80;99.30;;;;;;4993979;28;20026;-74
2021/11/13 05:17:51;;;;;;;14.23;9.10;;;10.80;99.30;;;;;;4994351;28;20027;-74
2021/11/13 05:20:18;;;;;;;18.92;9.85;;;10.80;99.30;;;;;;4993007;28;20030;-74
2021/11/13 05:22:46;;;;;;;14.65;8.45;;;10.80;99.40;;;;;;4994249;28;20034;-74
2021/11/13 05:25:16;;;;;;;17.05;9.05;;;10.70;99.40;;;;;;4994158;28;20105;-74
2021/11/13 05:27:41;;;;;;;16.67;9.20;;;10.70;99.40;;;;;;4994497;28;20030;-74
2021/11/13 05:30:10;;;;;;;18.02;9.60;;;10.70;99.40;;;;;;4993110;28;20022;-74
2021/11/13 05:32:36;;;;;;;14.30;8.68;;;10.70;99.40;;;;;;4992583;28;20561;-74
2021/11/13 05:35:02;;;;;;;12.32;7.20;;;10.70;99.50;;;;;;4993506;28;20026;-74
2021/11/13 05:37:28;;;;;;;14.50;7.53;;;10.70;99.80;;;;;;5024979;28;20022;-74
2021/11/13 05:39:53;;;;;;;13.05;7.13;;;10.80;99.50;;;;;;4993808;28;20467;-74
2021/11/13 05:42:19;;;;;;;15.15;7.32;;;10.80;99.50;;;;;;4991926;28;20049;-74
2021/11/13 05:44:45;;;;;;;12.48;6.80;;;10.80;99.50;;;;;;5025136;28;20035;-74
2021/11/13 05:47:11;;;;;;;14.10;7.40;;;10.80;99.50;;;;;;4993733;28;20026;-73
2021/11/13 05:49:37;;;;;;;15.30;7.78;;;10.80;99.50;;;;;;4993270;28;20038;-74
2021/11/13 05:52:03;;;;;;;15.23;8.13;;;10.80;99.60;;;;;;4993418;28;20037;-74
2021/11/13 05:54:29;;;;;;;13.15;7.50;;;10.80;99.60;;;;;;4993216;28;20455;-74
2021/11/13 05:56:55;;;;;;;13.25;7.25;;;10.70;99.60;;;;;;4993428;28;20030;-74
2021/11/13 05:59:20;;;;;;;14.30;8.00;;;10.70;99.70;;;;;;4992761;28;20157;-74
2021/11/13 06:01:46;;;;;;;12.63;7.50;;;10.80;99.70;;;;;;4993422;28;20101;-74
2021/11/13 06:04:12;;;;;;;11.52;6.20;;;10.70;99.60;;;;;;5025147;28;20041;-74
2021/11/13 06:06:38;;;;;;;11.55;6.60;;;10.70;99.60;;;;;;5024582;28;20049;-75
2021/11/13 06:09:04;;;;;;;11.10;5.93;;;10.70;99.60;;;;;;4993426;28;20030;-75
2021/11/13 06:11:30;;;;;;;11.65;6.60;;;10.70;99.70;;;;;;4992951;28;20523;-75
2021/11/13 06:13:56;;;;;;;11.75;6.28;;;10.70;99.60;;;;;;4993075;28;20418;-75
2021/11/13 06:16:22;;;;;;;10.77;5.70;;;10.70;99.70;;;;;;4991544;28;20022;-74
2021/11/13 06:18:47;;;;;;;14.15;7.03;;;10.70;99.70;;;;;;4991977;28;20025;-74
2021/11/13 06:21:13;;;;;;;12.38;6.47;;;10.70;99.70;;;;;;5024697;28;20458;-75
2021/11/13 06:23:40;;;;;;;11.35;6.15;;;10.70;99.70;;;;;;4992816;28;20489;-75
2021/11/13 06:26:06;;;;;;;14.43;6.85;;;10.70;99.70;;;;;;4993249;28;20026;-75
2021/11/13 06:28:33;;;;;;;8.90;5.20;;;10.70;99.70;;;;;;4992413;28;20022;-75
2021/11/13 06:30:59;;;;;;;11.52;6.05;;;10.70;99.70;;;;;;4992070;28;20487;-75
2021/11/13 06:33:25;;;;;;;12.23;6.70;;;10.80;99.80;;;;;;4991307;28;20371;-74
2021/11/13 06:35:51;;;;;;;13.52;7.72;;;10.70;99.90;;;;;;4993080;28;20459;-75
2021/11/13 06:38:17;;;;;;;13.43;7.47;;;10.70;99.80;;;;;;4993325;28;20435;-73
2021/11/13 06:40:43;;;;;;;15.82;7.60;;;10.70;99.80;;;;;;4992200;28;20025;-74
2021/11/13 06:43:08;;;;;;;12.00;6.20;;;10.70;99.80;;;;;;4993248;28;20034;-74
2021/11/13 06:45:34;;;;;;;12.10;7.07;;;10.70;99.90;;;;;;4992238;28;20026;-74
2021/11/13 06:48:00;;;;;;;13.43;7.00;;;10.70;99.90;;;;;;4991586;28;20038;-74
2021/11/13 06:50:26;;;;;;;13.85;6.60;;;10.70;99.90;;;;;;4992512;28;20030;-75
2021/11/13 06:52:52;;;;;;;12.75;6.65;;;10.70;99.90;;;;;;5024346;28;20022;-73
2021/11/13 06:55:18;;;;;;;17.13;7.50;;;10.70;99.90;;;;;;4991499;28;20113;-74
2021/11/13 06:57:44;;;;;;;11.57;6.53;;;10.70;99.90;;;;;;5023835;28;20430;-74
2021/11/13 07:00:16;;;;;;;12.90;6.80;;;10.70;99.90;;;;;;4991368;28;20061;-74
2021/11/13 07:02:42;;;;;;;12.25;7.25;;;10.70;99.90;;;;;;4992122;28;20487;-74
2021/11/13 07:05:09;;;;;;;13.05;6.72;;;10.70;99.90;;;;;;4992743;28;20055;-74
2021/11/13 07:07:35;;;;;;;11.55;6.20;;;10.60;99.90;;;;;;4992321;28;20016;-75
2021/11/13 07:10:03;;;;;;;14.50;7.50;;;10.60;99.90;;;;;;4991756;28;20084;-74
2021/11/13 07:12:29;;;;;;;13.05;7.28;;;10.60;99.90;;;;;;5023731;28;20023;-75
2021/11/13 07:14:55;;;;;;;13.65;7.57;;;10.60;99.90;;;;;;4991395;28;20474;-74
2021/11/13 07:17:21;;;;;;;9.73;5.90;;;10.60;99.90;;;;;;4991163;28;20176;-75
2021/11/13 07:19:47;;;;;;;12.68;6.88;;;10.60;99.90;;;;;;4991298;28;20026;-74
2021/11/13 07:22:15;;;;;;;12.07;6.25;;;10.60;99.90;;;;;;4991280;28;20026;-74
2021/11/13 07:24:41;;;;;;;13.45;7.30;;;10.60;99.90;;;;;;4990945;28;20521;-74
2021/11/13 07:27:08;;;;;;;15.00;7.43;;;10.70;99.90;;;;;;4991292;28;20033;-74
2021/11/13 07:29:42;;;;;;;13.98;7.22;;;10.70;99.90;;;;;;4992130;28;20490;-74
2021/11/13 07:32:08;;;;;;;12.10;6.43;;;10.70;99.90;;;;;;5023726;28;20058;-74
2021/11/13 07:34:33;;;;;;;12.10;6.63;;;10.70;99.90;;;;;;4991833;28;20069;-74
2021/11/13 07:36:59;;;;;;;13.45;7.40;;;10.70;99.90;;;;;;5024018;28;20125;-74
2021/11/13 07:39:25;;;;;;;11.90;6.38;;;10.70;99.90;;;;;;4991998;28;20034;-74
2021/11/13 07:41:50;;;;;;;12.23;7.35;;;10.80;99.90;;;;;;5023818;28;20026;-74
2021/11/13 07:44:16;;;;;;;12.20;6.78;;;10.80;99.90;;;;;;4996144;28;20117;-74
2021/11/13 07:46:42;;;;;;;11.85;6.38;;;10.80;99.90;;;;;;4994367;28;20382;-75
2021/11/13 07:49:10;;;;;;;15.30;7.28;;;10.90;99.90;;;;;;5027242;28;20026;-75
2021/11/13 07:51:36;;;;;;;13.25;7.10;;;10.90;99.90;;;;;;4993933;28;20045;-73
2021/11/13 07:54:03;;;;;;;12.60;7.57;;;11.00;99.90;;;;;;4995886;28;20033;-76
2021/11/13 07:56:28;;;;;;;12.93;6.43;;;11.00;99.80;;;;;;4995419;28;20050;-74
2021/11/13 07:58:55;;;;;;;12.38;7.53;;;11.10;99.80;;;;;;4993918;28;20509;-74
2021/11/13 08:01:21;;;;;;;14.63;7.45;;;11.10;99.70;;;;;;4995750;28;20469;-74
2021/11/13 08:03:46;;;;;;;11.82;6.20;;;11.20;99.70;;;;;;4994913;28;20486;-74
2021/11/13 08:06:12;;;;;;;15.02;7.40;;;11.20;99.60;;;;;;4994637;28;20137;-74
2021/11/13 08:08:39;;;;;;;16.42;7.47;;;11.20;99.60;;;;;;4994834;28;20034;-74
2021/11/13 08:11:05;;;;;;;13.90;7.70;;;11.20;99.60;;;;;;4995361;28;20060;-74
2021/11/13 08:13:31;;;;;;;16.05;8.68;;;11.20;99.60;;;;;;4993496;28;20065;-75
2021/11/13 08:15:56;;;;;;;12.73;7.78;;;11.30;99.60;;;;;;4995150;28;20434;-75
2021/11/13 08:18:23;;;;;;;15.85;7.88;;;11.30;99.60;;;;;;5027037;28;20018;-75
2021/11/13 08:20:49;;;;;;;15.23;7.97;;;11.30;99.60;;;;;;4994982;28;20034;-76
2021/11/13 08:23:15;;;;;;;16.52;7.55;;;11.30;99.60;;;;;;5026974;28;20053;-76
2021/11/13 08:28:28;;;;;;;14.98;8.18;;;11.40;99.60;;;;;;4994897;28;20134;-76
2021/11/13 08:30:55;;;;;;;15.65;8.05;;;11.40;99.60;;;;;;4995156;28;20026;-75
2021/11/13 08:33:21;;;;;;;16.08;7.70;;;11.40;99.50;;;;;;4993568;28;20097;-75
2021/11/13 08:35:48;;;;;;;16.15;7.75;;;11.40;99.50;;;;;;5026139;28;20054;-75
2021/11/13 08:38:17;;;;;;;17.52;9.27;;;11.50;99.50;;;;;;4995064;28;20534;-75
2021/11/13 08:40:44;;;;;;;15.02;7.75;;;11.50;99.50;;;;;;4994555;28;20030;-75
2021/11/13 08:43:11;;;;;;;15.25;8.00;;;11.50;99.50;;;;;;4995021;28;20027;-75
2021/11/13 08:45:36;;;;;;;17.90;9.05;;;11.60;99.40;;;;;;4994574;28;20105;-74
2021/11/13 08:48:02;;;;;;;16.30;7.70;;;11.60;99.50;;;;;;4995231;28;20579;-75
2021/11/13 08:50:30;;;;;;;17.20;8.82;;;11.60;99.50;;;;;;4994206;28;20038;-75
2021/11/13 08:52:58;;;;;;;15.90;8.80;;;11.60;99.50;;;;;;4994849;28;20176;-74
2021/11/13 08:55:26;;;;;;;16.33;8.30;;;11.60;99.50;;;;;;4993900;28;20038;-74
2021/11/13 08:57:53;;;;;;;13.75;7.65;;;11.60;99.50;;;;;;4994050;28;20031;-75
2021/11/13 09:00:27;;;;;;;16.40;9.18;;;11.60;99.50;;;;;;4994519;28;20050;-75
2021/11/13 09:02:55;;;;;;;19.20;9.40;;;11.70;99.40;;;;;;4994509;28;20109;-74
2021/11/13 09:05:21;;;;;;;16.05;8.75;;;11.70;99.40;;;;;;5026106;28;20113;-74
2021/11/13 09:07:47;;;;;;;15.00;7.30;;;11.70;99.40;;;;;;4994115;28;20105;-74
2021/11/13 09:10:13;;;;;;;12.63;6.55;;;11.80;99.40;;;;;;4994467;28;20030;-75
2021/11/13 09:12:40;;;;;;;16.50;8.68;;;11.80;99.40;;;;;;4993668;28;20026;-75
2021/11/13 09:15:13;;;;;;;20.20;9.98;;;11.80;99.40;;;;;;5025799;28;20471;-74
2021/11/13 09:17:40;;;;;;;15.48;8.63;;;11.80;99.40;;;;;;4992562;28;20015;-75
2021/11/13 09:20:27;;;;;;;15.85;8.35;;;11.90;99.40;;;;;;4994339;28;20479;-74
2021/11/13 09:22:53;;;;;;;18.88;9.50;;;11.90;99.40;;;;;;5025351;28;20505;-74
2021/11/13 09:25:20;;;;;;;18.08;8.68;;;11.90;99.40;;;;;;4992862;28;20049;-75
2021/11/13 09:27:46;;;;;;;18.77;8.93;;;11.90;99.40;;;;;;4993757;28;20030;-75
2021/11/13 09:30:16;;;;;;;18.15;9.70;;;11.90;99.50;;;;;;4993758;28;20443;-74
2021/11/13 09:32:43;;;;;;;16.67;8.75;;;11.90;99.50;;;;;;4993222;28;20038;-74
2021/11/13 09:35:13;;;;;;;19.92;9.80;;;11.90;99.60;;;;;;4993879;28;20018;-74
2021/11/13 09:37:40;;;;;;;18.80;9.02;;;11.90;99.60;;;;;;4992434;28;20381;-74
2021/11/13 09:40:07;;;;;;;19.15;9.05;;;11.90;99.60;;;;;;4993956;28;20030;-74
2021/11/13 09:42:33;;;;;;;18.92;9.40;;;11.90;99.60;;;;;;4993403;28;20026;-75
2021/11/13 09:44:59;;;;;;;18.92;8.43;;;12.00;99.60;;;;;;4993775;28;20033;-75
2021/11/13 09:47:26;;;;;;;15.57;8.07;;;12.00;99.50;;;;;;4993862;28;20378;-74
2021/11/13 09:49:53;;;;;;;17.98;9.52;;;12.00;99.50;;;;;;4993504;28;20504;-74
2021/11/13 09:52:19;;;;;;;18.45;8.85;;;12.10;99.50;;;;;;4993995;28;20034;-74
2021/11/13 09:54:45;;;;;;;16.05;8.18;;;12.10;99.50;;;;;;4992201;28;20117;-74
2021/11/13 09:57:11;;;;;;;17.08;8.25;;;12.20;99.50;;;;;;4993499;28;20031;-75
2021/11/13 09:59:37;;;;;;;17.63;8.98;;;12.30;99.40;;;;;;4992932;28;20054;-74
2021/11/13 10:02:04;;;;;;;19.05;8.57;;;12.30;99.30;;;;;;4993077;28;20038;-74
2021/11/13 10:04:30;;;;;;;19.83;9.27;;;12.20;99.30;;;;;;4993507;28;20022;-74
2021/11/13 10:06:56;;;;;;;16.40;8.18;;;12.30;99.30;;;;;;5024290;28;20019;-74
2021/11/13 10:09:22;;;;;;;14.30;7.47;;;12.30;99.30;;;;;;4992133;28;20070;-74
2021/11/13 10:11:51;;;;;;;16.80;7.80;;;12.40;99.40;;;;;;5024433;28;20037;-73
2021/11/13 10:14:31;;;;;;;16.70;8.00;;;12.30;99.40;;;;;;4991999;28;20030;-74
2021/11/13 10:16:56;;;;;;;18.15;7.90;;;12.30;99.40;;;;;;4992764;28;20026;-74
2021/11/13 10:19:22;;;;;;;17.83;8.18;;;12.30;99.40;;;;;;5024743;28;20022;-74
2021/11/13 10:21:53;;;;;;;13.68;6.90;;;12.30;99.50;;;;;;5023758;28;20112;-74
2021/11/13 10:24:26;;;;;;;15.98;7.70;;;12.30;99.50;;;;;;5024436;28;20022;-75
2021/11/13 10:26:58;;;;;;;16.58;7.75;;;12.30;99.50;;;;;;4992658;28;20057;-75
2021/11/13 10:29:25;;;;;;;16.00;8.20;;;12.30;99.50;;;;;;4993242;28;20031;-75
2021/11/13 10:31:54;;;;;;;15.52;7.97;;;12.40;99.50;;;;;;5024169;28;20447;-75
2021/11/13 10:34:41;;;;;;;14.40;6.60;;;12.40;99.50;;;;;;4992952;28;20493;-75
2021/11/13 10:37:25;;;;;;;17.27;8.02;;;12.40;99.50;;;;;;4993032;28;20034;-75
2021/11/13 10:40:14;;;;;;;18.13;8.38;;;12.40;99.40;;;;;;5024131;28;20475;-75
2021/11/13 10:42:39;;;;;;;15.60;7.18;;;12.40;99.40;;;;;;5024110;28;20027;-75
2021/11/13 10:45:05;;;;;;;18.27;7.75;;;12.50;99.40;;;;;;4991634;28;20061;-75
2021/11/13 10:47:31;;;;;;;15.15;7.22;;;12.50;99.30;;;;;;4991812;28;20410;-75
2021/11/13 10:50:24;;;;;;;13.50;7.18;;;12.50;99.30;;;;;;4992506;28;20455;-75
2021/11/13 10:53:22;;;;;;;13.85;6.95;;;12.50;99.40;;;;;;5023881;28;20447;-75
2021/11/13 10:56:01;;;;;;;14.30;7.35;;;12.50;99.40;;;;;;4992226;28;20093;-73
2021/11/13 10:58:27;;;;;;;18.27;7.60;;;12.50;99.40;;;;;;4992716;28;20077;-74
2021/11/13 11:00:52;;;;;;;17.70;7.53;;;12.60;99.30;;;;;;4992381;28;20034;-75
2021/11/13 11:03:18;;;;;;;18.52;7.68;;;12.60;99.30;;;;;;4991483;28;20030;-75
2021/11/13 11:05:48;;;;;;;17.23;8.43;;;12.60;99.30;;;;;;4991096;28;20109;-75
2021/11/13 11:08:32;;;;;;;18.63;8.30;;;12.60;99.30;;;;;;4991383;28;20050;-75
2021/11/13 11:10:58;;;;;;;13.40;7.40;;;12.60;99.30;;;;;;4992302;28;20030;-74
2021/11/13 11:13:48;;;;;;;13.98;6.90;;;12.60;99.30;;;;;;5024131;28;20033;-74
2021/11/13 11:16:31;;;;;;;17.58;7.72;;;12.70;99.30;;;;;;5024054;28;20032;-74
2021/11/13 11:19:04;;;;;;;18.05;7.95;;;12.70;99.20;;;;;;4995568;28;20033;-74
2021/11/13 11:21:42;;;;;;;14.50;8.23;;;12.80;99.20;;;;;;5027945;28;20387;-75
2021/11/13 11:24:15;;;;;;;16.85;8.18;;;12.80;99.20;;;;;;5027906;28;20462;-74
2021/11/13 11:26:43;;;;;;;18.27;8.07;;;12.90;99.10;;;;;;4995922;28;20066;-75
2021/11/13 11:29:09;;;;;;;17.80;8.18;;;12.90;99.00;;;;;;4994930;28;20421;-75
2021/11/13 11:31:57;;;;;;;18.90;8.10;;;13.00;98.90;;;;;;5027916;28;20034;-75
2021/11/13 11:34:27;;;;;;;15.32;6.85;;;13.00;98.90;;;;;;5027746;28;20050;-75
2021/11/13 11:36:55;;;;;;;15.45;7.45;;;13.00;98.90;;;;;;4995757;28;20081;-76
2021/11/13 11:39:22;;;;;;;16.02;7.38;;;13.00;99.00;;;;;;4995884;28;20394;-75
2021/11/13 11:41:49;;;;;;;13.75;7.55;;;12.90;99.00;;;;;;4993495;28;20014;-75
2021/11/13 11:44:16;;;;;;;13.35;6.97;;;12.90;99.10;;;;;;4995685;28;20030;-75
2021/11/13 11:46:42;;;;;;;15.95;6.88;;;12.80;99.20;;;;;;4995212;28;20133;-76
2021/11/13 11:49:10;;;;;;;13.65;6.50;;;12.70;99.30;;;;;;4995592;28;20019;-75
2021/11/13 11:51:36;;;;;;;12.95;6.32;;;12.80;99.40;;;;;;4995471;28;20088;-75
2021/11/13 11:54:06;;;;;;;13.50;6.32;;;12.70;99.40;;;;;;4993994;28;20022;-74
2021/11/13 11:56:33;;;;;;;11.95;5.93;;;12.70;99.40;;;;;;4995832;28;20097;-74
2021/11/13 11:59:05;;;;;;;10.63;5.35;;;12.80;99.30;;;;;;4994979;28;20050;-75
2021/11/13 12:01:34;;;;;;;11.15;5.20;;;12.80;99.40;;;;;;4995664;28;20033;-75
2021/11/13 12:04:17;;;;;;;11.55;5.53;;;12.90;99.30;;;;;;4993481;28;20534;-77
2021/11/13 12:06:47;;;;;;;10.20;4.97;;;13.00;99.20;;;;;;4994973;28;20084;-77
2021/11/13 12:09:13;;;;;;;14.05;5.55;;;13.10;99.00;;;;;;4994115;28;20124;-74
2021/11/13 12:11:39;;;;;;;10.57;5.63;;;13.10;98.90;;;;;;4994031;28;20030;-75
2021/11/13 12:14:23;;;;;;;11.00;4.72;;;13.10;98.90;;;;;;4995089;28;20474;-74
2021/11/13 12:16:50;;;;;;;11.07;5.35;;;13.10;99.10;;;;;;4993773;28;20065;-75
2021/11/13 12:19:16;;;;;;;9.63;4.82;;;13.00;99.10;;;;;;4995569;28;20455;-74
2021/11/13 12:21:55;;;;;;;12.05;5.60;;;13.00;99.20;;;;;;4994107;28;20030;-74
2021/11/13 12:24:21;;;;;;;10.13;4.82;;;13.00;99.20;;;;;;4995491;28;20542;-75
2021/11/13 12:27:04;;;;;;;9.90;5.20;;;13.10;99.20;;;;;;4994587;28;20026;-75
2021/11/13 12:29:45;;;;;;;11.57;5.53;;;13.20;99.10;;;;;;4995184;28;20018;-74
2021/11/13 12:32:13;;;;;;;13.43;5.68;;;13.40;98.80;;;;;;4995119;28;20030;-75
2021/11/13 12:34:39;;;;;;;10.23;5.45;;;13.60;98.60;;;;;;4995084;28;20077;-75
2021/11/13 12:37:10;;;;;;;11.82;5.53;;;13.70;98.50;;;;;;4993266;28;20030;-75
2021/11/13 12:39:43;;;;;;;12.57;5.32;;;13.70;98.40;;;;;;4995105;28;20029;-74
2021/11/13 12:42:11;;;;;;;13.35;5.00;;;13.80;98.40;;;;;;4993589;28;20064;-75